KWST/WST METAR and TAF weather

Enter ICAO airport designator
Station Type Date Time Source
KWST METAR 2020/01/23 14:53 UTC NOAA

KWST 231453Z AUTO 24005KT 10SM CLR 04/M03 A3043 RMK AO2 SLP306 T00391028 53006


Station Type Date Time Source
KWST Decoded METAR 2020/01/23 14:53 UTC NOAA

WESTERLY STATE AIRPORT, RI, United States (KWST) 41-21N 071-48W 21M
Jan 23, 2020 - 09:53 AM EST / 2020.01.23 1453 UTC
Wind: from the WSW (240 degrees) at 6 MPH (5 KT):0
Visibility: 10 mile(s):0
Sky conditions: clear
Temperature: 39.0 F (3.9 C)
Dew Point: 27.0 F (-2.8 C)
Relative Humidity: 61%
Pressure (altimeter): 30.43 in. Hg (1030 hPa)
Pressure tendency: 0.02 inches (0.6 hPa) higher than three hours ago
ob: KWST 231453Z AUTO 24005KT 10SM CLR 04/M03 A3043 RMK AO2 SLP306 T00391028 53006
cycle: 15

Station Type Date Time Source
KWST TAF UTC NOAA

Error!

Example: see airport list